sensor_id;sensor_type;location;lat;lon;timestamp;P1;durP1;ratioP1;P2;durP2;ratioP2
56173;SDS011;42058;52.308;20.924;2022-11-15T00:00:08;29.15;;;13.90;;
56173;SDS011;42058;52.308;20.924;2022-11-15T00:02:55;24.35;;;13.22;;
56173;SDS011;42058;52.308;20.924;2022-11-15T00:05:40;26.27;;;14.33;;
56173;SDS011;42058;52.308;20.924;2022-11-15T00:08:28;25.25;;;13.83;;
56173;SDS011;42058;52.308;20.924;2022-11-15T00:11:16;23.50;;;13.40;;
56173;SDS011;42058;52.308;20.924;2022-11-15T00:14:01;22.62;;;13.00;;
56173;SDS011;42058;52.308;20.924;2022-11-15T00:16:46;26.73;;;14.65;;
56173;SDS011;42058;52.308;20.924;2022-11-15T00:19:30;22.48;;;12.60;;
56173;SDS011;42058;52.308;20.924;2022-11-15T00:22:15;28.80;;;14.43;;
56173;SDS011;42058;52.308;20.924;2022-11-15T00:24:59;26.30;;;13.90;;
56173;SDS011;42058;52.308;20.924;2022-11-15T00:27:44;28.25;;;14.20;;
56173;SDS011;42058;52.308;20.924;2022-11-15T00:30:29;24.65;;;12.85;;
56173;SDS011;42058;52.308;20.924;2022-11-15T00:33:14;27.17;;;13.83;;
56173;SDS011;42058;52.308;20.924;2022-11-15T00:36:00;27.58;;;13.25;;
56173;SDS011;42058;52.308;20.924;2022-11-15T00:38:48;26.52;;;14.65;;
56173;SDS011;42058;52.308;20.924;2022-11-15T00:41:33;27.50;;;13.72;;
56173;SDS011;42058;52.308;20.924;2022-11-15T00:44:17;27.15;;;14.25;;
56173;SDS011;42058;52.308;20.924;2022-11-15T00:47:02;26.15;;;14.15;;
56173;SDS011;42058;52.308;20.924;2022-11-15T00:49:46;29.70;;;13.85;;
56173;SDS011;42058;52.308;20.924;2022-11-15T00:52:31;28.65;;;14.30;;
56173;SDS011;42058;52.308;20.924;2022-11-15T00:55:16;29.70;;;14.63;;
56173;SDS011;42058;52.308;20.924;2022-11-15T00:58:03;29.77;;;14.78;;
56173;SDS011;42058;52.308;20.924;2022-11-15T01:00:47;26.50;;;14.13;;
56173;SDS011;42058;52.308;20.924;2022-11-15T01:03:32;33.58;;;17.20;;
56173;SDS011;42058;52.308;20.924;2022-11-15T01:06:18;31.33;;;16.30;;
56173;SDS011;42058;52.308;20.924;2022-11-15T01:09:03;33.92;;;16.50;;
56173;SDS011;42058;52.308;20.924;2022-11-15T01:11:47;32.33;;;15.38;;
56173;SDS011;42058;52.308;20.924;2022-11-15T01:14:32;30.92;;;16.42;;
56173;SDS011;42058;52.308;20.924;2022-11-15T01:17:17;30.95;;;16.35;;
56173;SDS011;42058;52.308;20.924;2022-11-15T01:20:01;33.65;;;15.93;;
56173;SDS011;42058;52.308;20.924;2022-11-15T01:22:47;34.13;;;16.37;;
56173;SDS011;42058;52.308;20.924;2022-11-15T01:25:31;36.50;;;17.02;;
56173;SDS011;42058;52.308;20.924;2022-11-15T01:28:16;33.90;;;17.00;;
56173;SDS011;42058;52.308;20.924;2022-11-15T01:31:01;34.18;;;17.15;;
56173;SDS011;42058;52.308;20.924;2022-11-15T01:33:49;43.78;;;18.07;;
56173;SDS011;42058;52.308;20.924;2022-11-15T01:36:34;35.68;;;17.12;;
56173;SDS011;42058;52.308;20.924;2022-11-15T01:39:19;36.95;;;18.87;;
56173;SDS011;42058;52.308;20.924;2022-11-15T01:42:03;39.73;;;19.02;;
56173;SDS011;42058;52.308;20.924;2022-11-15T01:44:49;36.55;;;19.55;;
56173;SDS011;42058;52.308;20.924;2022-11-15T01:47:37;45.43;;;20.65;;
56173;SDS011;42058;52.308;20.924;2022-11-15T01:50:26;42.67;;;19.80;;
56173;SDS011;42058;52.308;20.924;2022-11-15T01:53:14;45.43;;;20.95;;
56173;SDS011;42058;52.308;20.924;2022-11-15T01:56:01;39.55;;;19.17;;
56173;SDS011;42058;52.308;20.924;2022-11-15T01:58:48;45.78;;;20.30;;
56173;SDS011;42058;52.308;20.924;2022-11-15T02:01:35;45.03;;;21.00;;
56173;SDS011;42058;52.308;20.924;2022-11-15T02:04:22;44.38;;;21.40;;
56173;SDS011;42058;52.308;20.924;2022-11-15T02:07:17;44.30;;;20.65;;
56173;SDS011;42058;52.308;20.924;2022-11-15T02:10:09;41.28;;;19.73;;
56173;SDS011;42058;52.308;20.924;2022-11-15T02:12:54;41.70;;;19.82;;
56173;SDS011;42058;52.308;20.924;2022-11-15T02:15:46;48.80;;;21.20;;
56173;SDS011;42058;52.308;20.924;2022-11-15T02:18:55;45.95;;;20.92;;
56173;SDS011;42058;52.308;20.924;2022-11-15T02:29:03;40.05;;;19.75;;
56173;SDS011;42058;52.308;20.924;2022-11-15T02:32:15;40.73;;;19.37;;
56173;SDS011;42058;52.308;20.924;2022-11-15T02:38:21;40.25;;;18.90;;
56173;SDS011;42058;52.308;20.924;2022-11-15T02:41:24;41.35;;;19.10;;
56173;SDS011;42058;52.308;20.924;2022-11-15T02:44:37;40.33;;;19.57;;
56173;SDS011;42058;52.308;20.924;2022-11-15T02:47:27;39.15;;;19.42;;
56173;SDS011;42058;52.308;20.924;2022-11-15T02:50:17;38.90;;;18.75;;
56173;SDS011;42058;52.308;20.924;2022-11-15T02:53:06;40.17;;;18.77;;
56173;SDS011;42058;52.308;20.924;2022-11-15T02:55:53;44.10;;;20.05;;
56173;SDS011;42058;52.308;20.924;2022-11-15T02:58:48;43.15;;;20.15;;
56173;SDS011;42058;52.308;20.924;2022-11-15T03:08:32;45.55;;;20.40;;
56173;SDS011;42058;52.308;20.924;2022-11-15T03:11:27;43.85;;;19.40;;
56173;SDS011;42058;52.308;20.924;2022-11-15T03:14:19;46.20;;;20.72;;
56173;SDS011;42058;52.308;20.924;2022-11-15T03:17:30;48.98;;;22.00;;
56173;SDS011;42058;52.308;20.924;2022-11-15T03:20:31;46.40;;;21.60;;
56173;SDS011;42058;52.308;20.924;2022-11-15T03:23:17;46.77;;;21.27;;
56173;SDS011;42058;52.308;20.924;2022-11-15T03:26:03;50.95;;;22.67;;
56173;SDS011;42058;52.308;20.924;2022-11-15T03:28:55;50.88;;;21.73;;
56173;SDS011;42058;52.308;20.924;2022-11-15T03:31:48;47.38;;;22.50;;
56173;SDS011;42058;52.308;20.924;2022-11-15T03:37:38;52.33;;;22.27;;
56173;SDS011;42058;52.308;20.924;2022-11-15T03:40:33;53.55;;;23.00;;
56173;SDS011;42058;52.308;20.924;2022-11-15T03:43:36;50.98;;;21.85;;
56173;SDS011;42058;52.308;20.924;2022-11-15T03:49:59;44.98;;;21.50;;
56173;SDS011;42058;52.308;20.924;2022-11-15T03:52:53;46.68;;;20.48;;
56173;SDS011;42058;52.308;20.924;2022-11-15T03:55:38;46.05;;;20.60;;
56173;SDS011;42058;52.308;20.924;2022-11-15T03:58:24;46.50;;;20.77;;
56173;SDS011;42058;52.308;20.924;2022-11-15T04:01:09;51.08;;;21.97;;
56173;SDS011;42058;52.308;20.924;2022-11-15T04:03:53;52.95;;;22.98;;
56173;SDS011;42058;52.308;20.924;2022-11-15T04:06:38;50.85;;;22.30;;
56173;SDS011;42058;52.308;20.924;2022-11-15T04:09:22;50.17;;;22.50;;
56173;SDS011;42058;52.308;20.924;2022-11-15T04:12:07;57.90;;;23.62;;
56173;SDS011;42058;52.308;20.924;2022-11-15T04:14:51;50.05;;;22.30;;
56173;SDS011;42058;52.308;20.924;2022-11-15T04:17:45;56.20;;;22.73;;
56173;SDS011;42058;52.308;20.924;2022-11-15T04:20:37;51.68;;;22.37;;
56173;SDS011;42058;52.308;20.924;2022-11-15T04:23:23;56.88;;;22.90;;
56173;SDS011;42058;52.308;20.924;2022-11-15T04:26:27;49.15;;;23.00;;
56173;SDS011;42058;52.308;20.924;2022-11-15T04:29:11;50.43;;;23.02;;
56173;SDS011;42058;52.308;20.924;2022-11-15T04:32:11;52.20;;;23.05;;
56173;SDS011;42058;52.308;20.924;2022-11-15T04:34:55;49.63;;;22.85;;
56173;SDS011;42058;52.308;20.924;2022-11-15T04:37:40;56.98;;;22.58;;
56173;SDS011;42058;52.308;20.924;2022-11-15T04:40:25;48.95;;;22.13;;
56173;SDS011;42058;52.308;20.924;2022-11-15T04:43:09;50.38;;;22.62;;
56173;SDS011;42058;52.308;20.924;2022-11-15T04:45:54;53.38;;;23.10;;
56173;SDS011;42058;52.308;20.924;2022-11-15T04:48:39;51.90;;;23.00;;
56173;SDS011;42058;52.308;20.924;2022-11-15T04:51:23;57.50;;;23.62;;
56173;SDS011;42058;52.308;20.924;2022-11-15T04:54:08;48.25;;;21.90;;
56173;SDS011;42058;52.308;20.924;2022-11-15T04:56:52;49.35;;;21.70;;
56173;SDS011;42058;52.308;20.924;2022-11-15T04:59:37;48.92;;;22.15;;
56173;SDS011;42058;52.308;20.924;2022-11-15T05:02:22;52.55;;;22.22;;
56173;SDS011;42058;52.308;20.924;2022-11-15T05:05:07;51.73;;;22.95;;
56173;SDS011;42058;52.308;20.924;2022-11-15T05:07:52;50.60;;;20.77;;
56173;SDS011;42058;52.308;20.924;2022-11-15T05:10:36;53.23;;;21.90;;
56173;SDS011;42058;52.308;20.924;2022-11-15T05:13:21;50.40;;;20.75;;
56173;SDS011;42058;52.308;20.924;2022-11-15T05:16:06;52.13;;;21.12;;
56173;SDS011;42058;52.308;20.924;2022-11-15T05:18:51;54.42;;;22.00;;
56173;SDS011;42058;52.308;20.924;2022-11-15T05:21:39;52.43;;;21.93;;
56173;SDS011;42058;52.308;20.924;2022-11-15T05:24:26;53.83;;;20.97;;
56173;SDS011;42058;52.308;20.924;2022-11-15T05:27:11;51.90;;;22.00;;
56173;SDS011;42058;52.308;20.924;2022-11-15T05:29:55;52.53;;;21.27;;
56173;SDS011;42058;52.308;20.924;2022-11-15T05:32:40;47.00;;;20.55;;
56173;SDS011;42058;52.308;20.924;2022-11-15T05:35:34;51.02;;;21.68;;
56173;SDS011;42058;52.308;20.924;2022-11-15T05:38:26;54.67;;;21.42;;
56173;SDS011;42058;52.308;20.924;2022-11-15T05:41:10;47.33;;;20.75;;
56173;SDS011;42058;52.308;20.924;2022-11-15T05:43:57;51.45;;;20.32;;
56173;SDS011;42058;52.308;20.924;2022-11-15T05:46:42;45.43;;;19.90;;
56173;SDS011;42058;52.308;20.924;2022-11-15T05:49:29;53.70;;;21.42;;
56173;SDS011;42058;52.308;20.924;2022-11-15T05:52:17;56.33;;;22.65;;
56173;SDS011;42058;52.308;20.924;2022-11-15T05:55:05;52.35;;;21.35;;
56173;SDS011;42058;52.308;20.924;2022-11-15T05:57:52;46.68;;;20.45;;
56173;SDS011;42058;52.308;20.924;2022-11-15T06:00:36;49.08;;;20.52;;
56173;SDS011;42058;52.308;20.924;2022-11-15T06:03:21;48.15;;;21.25;;
56173;SDS011;42058;52.308;20.924;2022-11-15T06:06:06;50.50;;;20.30;;
56173;SDS011;42058;52.308;20.924;2022-11-15T06:08:51;53.30;;;21.42;;
56173;SDS011;42058;52.308;20.924;2022-11-15T06:11:35;51.42;;;20.62;;
56173;SDS011;42058;52.308;20.924;2022-11-15T06:14:20;52.70;;;20.48;;
56173;SDS011;42058;52.308;20.924;2022-11-15T06:17:04;50.38;;;20.37;;
56173;SDS011;42058;52.308;20.924;2022-11-15T06:19:49;47.58;;;20.20;;
56173;SDS011;42058;52.308;20.924;2022-11-15T06:22:34;51.33;;;20.32;;
56173;SDS011;42058;52.308;20.924;2022-11-15T06:25:18;51.83;;;20.72;;
56173;SDS011;42058;52.308;20.924;2022-11-15T06:28:03;45.78;;;19.35;;
56173;SDS011;42058;52.308;20.924;2022-11-15T06:30:48;45.52;;;19.57;;
56173;SDS011;42058;52.308;20.924;2022-11-15T06:33:33;49.20;;;19.67;;
56173;SDS011;42058;52.308;20.924;2022-11-15T06:36:18;46.92;;;18.45;;
56173;SDS011;42058;52.308;20.924;2022-11-15T06:39:03;48.40;;;19.85;;
56173;SDS011;42058;52.308;20.924;2022-11-15T06:41:49;46.60;;;18.77;;
56173;SDS011;42058;52.308;20.924;2022-11-15T06:44:33;47.58;;;19.90;;
56173;SDS011;42058;52.308;20.924;2022-11-15T06:47:18;46.20;;;18.75;;
56173;SDS011;42058;52.308;20.924;2022-11-15T06:50:03;43.48;;;18.02;;
56173;SDS011;42058;52.308;20.924;2022-11-15T06:52:48;44.05;;;17.35;;
56173;SDS011;42058;52.308;20.924;2022-11-15T06:55:32;45.12;;;17.98;;
56173;SDS011;42058;52.308;20.924;2022-11-15T06:58:17;42.67;;;16.65;;
56173;SDS011;42058;52.308;20.924;2022-11-15T07:01:04;41.28;;;16.70;;
56173;SDS011;42058;52.308;20.924;2022-11-15T07:03:51;46.23;;;18.00;;
56173;SDS011;42058;52.308;20.924;2022-11-15T07:06:36;48.65;;;18.32;;
56173;SDS011;42058;52.308;20.924;2022-11-15T07:09:21;46.30;;;19.02;;
56173;SDS011;42058;52.308;20.924;2022-11-15T07:12:05;44.70;;;17.90;;
56173;SDS011;42058;52.308;20.924;2022-11-15T07:14:50;48.08;;;17.65;;
56173;SDS011;42058;52.308;20.924;2022-11-15T07:17:35;53.28;;;18.10;;
56173;SDS011;42058;52.308;20.924;2022-11-15T07:20:19;40.20;;;17.32;;
56173;SDS011;42058;52.308;20.924;2022-11-15T07:23:04;42.48;;;17.07;;
56173;SDS011;42058;52.308;20.924;2022-11-15T07:25:49;50.85;;;18.40;;
56173;SDS011;42058;52.308;20.924;2022-11-15T07:28:34;39.15;;;17.02;;
56173;SDS011;42058;52.308;20.924;2022-11-15T07:31:19;39.65;;;16.50;;
56173;SDS011;42058;52.308;20.924;2022-11-15T07:34:03;38.53;;;16.05;;
56173;SDS011;42058;52.308;20.924;2022-11-15T07:36:49;37.78;;;16.87;;
56173;SDS011;42058;52.308;20.924;2022-11-15T07:39:33;41.70;;;18.37;;
56173;SDS011;42058;52.308;20.924;2022-11-15T07:42:18;40.45;;;16.25;;
56173;SDS011;42058;52.308;20.924;2022-11-15T07:45:24;39.45;;;16.40;;
56173;SDS011;42058;52.308;20.924;2022-11-15T07:48:10;40.15;;;17.25;;
56173;SDS011;42058;52.308;20.924;2022-11-15T07:50:55;39.38;;;16.35;;
56173;SDS011;42058;52.308;20.924;2022-11-15T07:53:40;43.08;;;18.92;;
56173;SDS011;42058;52.308;20.924;2022-11-15T07:56:26;42.03;;;17.55;;
56173;SDS011;42058;52.308;20.924;2022-11-15T07:59:11;41.63;;;18.05;;
56173;SDS011;42058;52.308;20.924;2022-11-15T08:01:55;46.70;;;18.23;;
56173;SDS011;42058;52.308;20.924;2022-11-15T08:04:40;45.92;;;17.82;;
56173;SDS011;42058;52.308;20.924;2022-11-15T08:07:26;41.02;;;17.15;;
56173;SDS011;42058;52.308;20.924;2022-11-15T08:10:14;44.35;;;18.45;;
56173;SDS011;42058;52.308;20.924;2022-11-15T08:13:01;39.30;;;17.45;;
56173;SDS011;42058;52.308;20.924;2022-11-15T08:15:49;45.20;;;17.17;;
56173;SDS011;42058;52.308;20.924;2022-11-15T08:18:34;36.05;;;17.65;;
56173;SDS011;42058;52.308;20.924;2022-11-15T08:21:19;40.17;;;17.40;;
56173;SDS011;42058;52.308;20.924;2022-11-15T08:24:05;36.75;;;16.57;;
56173;SDS011;42058;52.308;20.924;2022-11-15T08:26:52;35.75;;;17.05;;
56173;SDS011;42058;52.308;20.924;2022-11-15T08:29:37;38.42;;;16.35;;
56173;SDS011;42058;52.308;20.924;2022-11-15T08:32:21;34.75;;;15.88;;
56173;SDS011;42058;52.308;20.924;2022-11-15T08:35:06;35.85;;;16.70;;
56173;SDS011;42058;52.308;20.924;2022-11-15T08:37:52;34.40;;;15.23;;
56173;SDS011;42058;52.308;20.924;2022-11-15T08:40:38;37.17;;;16.62;;
56173;SDS011;42058;52.308;20.924;2022-11-15T08:43:22;32.70;;;13.78;;
56173;SDS011;42058;52.308;20.924;2022-11-15T08:46:08;38.55;;;16.75;;
56173;SDS011;42058;52.308;20.924;2022-11-15T08:48:56;38.28;;;15.72;;
56173;SDS011;42058;52.308;20.924;2022-11-15T08:51:41;36.25;;;16.00;;
56173;SDS011;42058;52.308;20.924;2022-11-15T08:54:26;31.82;;;16.12;;
56173;SDS011;42058;52.308;20.924;2022-11-15T08:57:11;39.40;;;16.12;;
56173;SDS011;42058;52.308;20.924;2022-11-15T08:59:56;34.67;;;15.60;;
56173;SDS011;42058;52.308;20.924;2022-11-15T09:02:41;38.58;;;17.02;;
56173;SDS011;42058;52.308;20.924;2022-11-15T09:05:26;38.60;;;16.70;;
56173;SDS011;42058;52.308;20.924;2022-11-15T09:08:11;36.50;;;15.70;;
56173;SDS011;42058;52.308;20.924;2022-11-15T09:10:57;39.73;;;17.48;;
56173;SDS011;42058;52.308;20.924;2022-11-15T09:13:42;37.00;;;17.37;;
56173;SDS011;42058;52.308;20.924;2022-11-15T09:16:26;37.55;;;17.27;;
56173;SDS011;42058;52.308;20.924;2022-11-15T09:19:11;40.08;;;17.67;;
56173;SDS011;42058;52.308;20.924;2022-11-15T09:21:56;37.93;;;17.12;;
56173;SDS011;42058;52.308;20.924;2022-11-15T09:24:41;38.60;;;16.95;;
56173;SDS011;42058;52.308;20.924;2022-11-15T09:27:29;41.60;;;17.77;;
56173;SDS011;42058;52.308;20.924;2022-11-15T09:30:15;42.70;;;17.40;;
56173;SDS011;42058;52.308;20.924;2022-11-15T09:33:05;39.98;;;17.17;;
56173;SDS011;42058;52.308;20.924;2022-11-15T09:35:57;46.28;;;18.07;;
56173;SDS011;42058;52.308;20.924;2022-11-15T09:38:46;44.77;;;19.70;;
56173;SDS011;42058;52.308;20.924;2022-11-15T09:41:34;41.15;;;17.92;;
56173;SDS011;42058;52.308;20.924;2022-11-15T09:44:43;38.40;;;16.60;;
56173;SDS011;42058;52.308;20.924;2022-11-15T09:50:51;48.92;;;19.55;;
56173;SDS011;42058;52.308;20.924;2022-11-15T09:53:22;40.12;;;18.20;;
56173;SDS011;42058;52.308;20.924;2022-11-15T09:56:16;43.83;;;18.07;;
56173;SDS011;42058;52.308;20.924;2022-11-15T09:59:00;40.95;;;18.10;;
56173;SDS011;42058;52.308;20.924;2022-11-15T10:01:49;39.92;;;17.30;;
56173;SDS011;42058;52.308;20.924;2022-11-15T10:04:26;43.33;;;18.67;;
56173;SDS011;42058;52.308;20.924;2022-11-15T10:09:53;42.20;;;18.55;;
56173;SDS011;42058;52.308;20.924;2022-11-15T10:12:22;46.80;;;18.92;;
56173;SDS011;42058;52.308;20.924;2022-11-15T10:15:00;44.53;;;19.55;;
56173;SDS011;42058;52.308;20.924;2022-11-15T10:20:28;43.28;;;17.90;;
56173;SDS011;42058;52.308;20.924;2022-11-15T10:22:58;45.63;;;20.37;;
56173;SDS011;42058;52.308;20.924;2022-11-15T10:25:33;48.52;;;19.87;;
56173;SDS011;42058;52.308;20.924;2022-11-15T10:28:09;45.50;;;19.23;;
56173;SDS011;42058;52.308;20.924;2022-11-15T10:30:50;44.70;;;19.10;;
56173;SDS011;42058;52.308;20.924;2022-11-15T10:41:22;43.48;;;18.57;;
56173;SDS011;42058;52.308;20.924;2022-11-15T10:46:47;56.18;;;20.68;;
56173;SDS011;42058;52.308;20.924;2022-11-15T10:49:24;44.90;;;19.95;;
56173;SDS011;42058;52.308;20.924;2022-11-15T10:52:02;49.63;;;19.90;;
56173;SDS011;42058;52.308;20.924;2022-11-15T10:54:45;46.63;;;19.87;;
56173;SDS011;42058;52.308;20.924;2022-11-15T10:57:23;48.60;;;20.32;;
56173;SDS011;42058;52.308;20.924;2022-11-15T10:59:54;54.90;;;21.10;;
56173;SDS011;42058;52.308;20.924;2022-11-15T11:02:31;48.25;;;20.08;;
56173;SDS011;42058;52.308;20.924;2022-11-15T11:05:06;47.60;;;19.75;;
56173;SDS011;42058;52.308;20.924;2022-11-15T11:07:58;54.45;;;20.50;;
56173;SDS011;42058;52.308;20.924;2022-11-15T11:10:38;62.38;;;22.77;;
56173;SDS011;42058;52.308;20.924;2022-11-15T11:16:08;49.35;;;20.92;;
56173;SDS011;42058;52.308;20.924;2022-11-15T11:19:17;47.53;;;19.85;;
56173;SDS011;42058;52.308;20.924;2022-11-15T11:22:05;51.20;;;22.35;;
56173;SDS011;42058;52.308;20.924;2022-11-15T11:25:16;47.90;;;21.68;;
56173;SDS011;42058;52.308;20.924;2022-11-15T11:28:30;49.23;;;21.15;;
56173;SDS011;42058;52.308;20.924;2022-11-15T11:33:55;51.90;;;21.75;;
56173;SDS011;42058;52.308;20.924;2022-11-15T11:36:51;46.77;;;21.05;;
56173;SDS011;42058;52.308;20.924;2022-11-15T11:39:47;51.25;;;22.02;;
56173;SDS011;42058;52.308;20.924;2022-11-15T11:42:31;47.83;;;20.95;;
56173;SDS011;42058;52.308;20.924;2022-11-15T11:50:40;55.95;;;23.50;;
56173;SDS011;42058;52.308;20.924;2022-11-15T11:56:02;56.55;;;23.67;;
56173;SDS011;42058;52.308;20.924;2022-11-15T11:58:34;48.65;;;21.73;;
56173;SDS011;42058;52.308;20.924;2022-11-15T12:01:11;51.37;;;21.97;;
56173;SDS011;42058;52.308;20.924;2022-11-15T12:03:42;46.92;;;21.52;;
56173;SDS011;42058;52.308;20.924;2022-11-15T12:06:22;47.83;;;22.17;;
56173;SDS011;42058;52.308;20.924;2022-11-15T12:12:13;47.88;;;20.75;;
56173;SDS011;42058;52.308;20.924;2022-11-15T12:17:39;54.77;;;21.57;;
56173;SDS011;42058;52.308;20.924;2022-11-15T12:20:17;54.40;;;22.80;;
56173;SDS011;42058;52.308;20.924;2022-11-15T12:23:01;54.65;;;21.82;;
56173;SDS011;42058;52.308;20.924;2022-11-15T12:31:47;44.20;;;21.12;;
56173;SDS011;42058;52.308;20.924;2022-11-15T12:34:13;44.35;;;20.82;;
56173;SDS011;42058;52.308;20.924;2022-11-15T12:36:51;41.80;;;19.67;;
56173;SDS011;42058;52.308;20.924;2022-11-15T12:39:18;48.00;;;21.17;;
56173;SDS011;42058;52.308;20.924;2022-11-15T12:49:49;46.37;;;21.55;;
56173;SDS011;42058;52.308;20.924;2022-11-15T12:52:17;49.85;;;21.60;;
56173;SDS011;42058;52.308;20.924;2022-11-15T12:54:58;47.13;;;21.33;;
56173;SDS011;42058;52.308;20.924;2022-11-15T12:57:28;46.33;;;21.42;;
56173;SDS011;42058;52.308;20.924;2022-11-15T13:00:36;46.45;;;21.77;;
56173;SDS011;42058;52.308;20.924;2022-11-15T13:02:46;50.50;;;21.95;;
56173;SDS011;42058;52.308;20.924;2022-11-15T13:12:59;48.87;;;20.50;;
56173;SDS011;42058;52.308;20.924;2022-11-15T13:20:59;46.68;;;22.02;;
56173;SDS011;42058;52.308;20.924;2022-11-15T13:23:27;47.33;;;21.17;;
56173;SDS011;42058;52.308;20.924;2022-11-15T13:28:43;49.23;;;21.82;;
56173;SDS011;42058;52.308;20.924;2022-11-15T13:31:26;48.42;;;22.35;;
56173;SDS011;42058;52.308;20.924;2022-11-15T13:33:57;47.73;;;21.68;;
56173;SDS011;42058;52.308;20.924;2022-11-15T13:36:43;45.40;;;20.97;;
56173;SDS011;42058;52.308;20.924;2022-11-15T13:39:14;41.18;;;20.15;;
56173;SDS011;42058;52.308;20.924;2022-11-15T13:41:55;50.83;;;20.88;;
56173;SDS011;42058;52.308;20.924;2022-11-15T13:44:26;54.55;;;22.80;;
56173;SDS011;42058;52.308;20.924;2022-11-15T13:47:02;55.78;;;23.15;;
56173;SDS011;42058;52.308;20.924;2022-11-15T13:49:38;50.25;;;21.95;;
56173;SDS011;42058;52.308;20.924;2022-11-15T13:52:05;53.13;;;23.95;;
56173;SDS011;42058;52.308;20.924;2022-11-15T13:59:59;50.52;;;22.87;;
56173;SDS011;42058;52.308;20.924;2022-11-15T14:02:40;50.08;;;22.93;;
56173;SDS011;42058;52.308;20.924;2022-11-15T14:05:14;51.58;;;22.73;;
56173;SDS011;42058;52.308;20.924;2022-11-15T14:12:59;57.53;;;22.48;;
56173;SDS011;42058;52.308;20.924;2022-11-15T14:15:30;46.80;;;22.30;;
56173;SDS011;42058;52.308;20.924;2022-11-15T14:18:00;51.35;;;20.55;;
56173;SDS011;42058;52.308;20.924;2022-11-15T14:23:05;49.27;;;19.87;;
56173;SDS011;42058;52.308;20.924;2022-11-15T14:25:54;48.63;;;21.57;;
56173;SDS011;42058;52.308;20.924;2022-11-15T14:30:56;53.93;;;21.37;;
56173;SDS011;42058;52.308;20.924;2022-11-15T14:33:27;50.88;;;21.97;;
56173;SDS011;42058;52.308;20.924;2022-11-15T14:36:05;52.03;;;23.05;;
56173;SDS011;42058;52.308;20.924;2022-11-15T14:38:38;49.65;;;21.62;;
56173;SDS011;42058;52.308;20.924;2022-11-15T14:41:04;55.17;;;23.00;;
56173;SDS011;42058;52.308;20.924;2022-11-15T14:43:31;56.48;;;24.23;;
56173;SDS011;42058;52.308;20.924;2022-11-15T14:45:57;55.52;;;23.00;;
56173;SDS011;42058;52.308;20.924;2022-11-15T14:48:23;53.58;;;22.37;;
56173;SDS011;42058;52.308;20.924;2022-11-15T14:50:49;52.62;;;23.10;;
56173;SDS011;42058;52.308;20.924;2022-11-15T14:53:16;51.45;;;22.62;;
56173;SDS011;42058;52.308;20.924;2022-11-15T14:55:43;52.43;;;22.90;;
56173;SDS011;42058;52.308;20.924;2022-11-15T14:58:09;45.90;;;21.00;;
56173;SDS011;42058;52.308;20.924;2022-11-15T15:00:36;53.68;;;22.50;;
56173;SDS011;42058;52.308;20.924;2022-11-15T15:03:05;48.00;;;21.82;;
56173;SDS011;42058;52.308;20.924;2022-11-15T15:05:33;51.58;;;23.32;;
56173;SDS011;42058;52.308;20.924;2022-11-15T15:08:05;57.70;;;21.00;;
56173;SDS011;42058;52.308;20.924;2022-11-15T15:10:43;55.23;;;22.37;;
56173;SDS011;42058;52.308;20.924;2022-11-15T15:13:08;53.90;;;23.10;;
56173;SDS011;42058;52.308;20.924;2022-11-15T15:15:41;58.45;;;25.20;;
56173;SDS011;42058;52.308;20.924;2022-11-15T15:18:07;64.00;;;24.85;;
56173;SDS011;42058;52.308;20.924;2022-11-15T15:20:39;66.33;;;26.33;;
56173;SDS011;42058;52.308;20.924;2022-11-15T15:23:05;62.60;;;24.75;;
56173;SDS011;42058;52.308;20.924;2022-11-15T15:25:40;62.43;;;25.62;;
56173;SDS011;42058;52.308;20.924;2022-11-15T15:28:07;58.35;;;23.55;;
56173;SDS011;42058;52.308;20.924;2022-11-15T15:30:33;60.03;;;24.47;;
56173;SDS011;42058;52.308;20.924;2022-11-15T15:32:59;61.53;;;24.72;;
56173;SDS011;42058;52.308;20.924;2022-11-15T15:35:28;56.45;;;24.75;;
56173;SDS011;42058;52.308;20.924;2022-11-15T15:37:57;62.27;;;25.30;;
56173;SDS011;42058;52.308;20.924;2022-11-15T15:40:25;67.65;;;25.55;;
56173;SDS011;42058;52.308;20.924;2022-11-15T15:42:54;60.28;;;25.90;;
56173;SDS011;42058;52.308;20.924;2022-11-15T15:45:20;61.77;;;26.10;;
56173;SDS011;42058;52.308;20.924;2022-11-15T15:47:46;64.03;;;26.40;;
56173;SDS011;42058;52.308;20.924;2022-11-15T15:52:53;57.43;;;24.50;;
56173;SDS011;42058;52.308;20.924;2022-11-15T15:55:22;53.73;;;22.35;;
56173;SDS011;42058;52.308;20.924;2022-11-15T15:57:49;64.53;;;25.02;;
56173;SDS011;42058;52.308;20.924;2022-11-15T16:00:16;56.77;;;23.18;;
56173;SDS011;42058;52.308;20.924;2022-11-15T16:02:44;55.60;;;22.37;;
56173;SDS011;42058;52.308;20.924;2022-11-15T16:05:10;61.13;;;24.45;;
56173;SDS011;42058;52.308;20.924;2022-11-15T16:07:38;61.23;;;22.17;;
56173;SDS011;42058;52.308;20.924;2022-11-15T16:10:24;58.50;;;23.20;;
56173;SDS011;42058;52.308;20.924;2022-11-15T16:12:57;58.08;;;22.65;;
56173;SDS011;42058;52.308;20.924;2022-11-15T16:15:24;62.58;;;24.52;;
56173;SDS011;42058;52.308;20.924;2022-11-15T16:17:56;59.65;;;25.08;;
56173;SDS011;42058;52.308;20.924;2022-11-15T16:20:40;61.33;;;22.20;;
56173;SDS011;42058;52.308;20.924;2022-11-15T16:23:12;61.92;;;23.10;;
56173;SDS011;42058;52.308;20.924;2022-11-15T16:25:41;61.70;;;23.35;;
56173;SDS011;42058;52.308;20.924;2022-11-15T16:28:21;60.52;;;23.85;;
56173;SDS011;42058;52.308;20.924;2022-11-15T16:31:03;62.50;;;23.25;;
56173;SDS011;42058;52.308;20.924;2022-11-15T16:33:37;59.45;;;22.22;;
56173;SDS011;42058;52.308;20.924;2022-11-15T16:36:05;57.60;;;21.60;;
56173;SDS011;42058;52.308;20.924;2022-11-15T16:38:45;58.40;;;22.85;;
56173;SDS011;42058;52.308;20.924;2022-11-15T16:41:11;52.45;;;20.52;;
56173;SDS011;42058;52.308;20.924;2022-11-15T16:43:39;51.88;;;19.12;;
56173;SDS011;42058;52.308;20.924;2022-11-15T16:46:12;59.33;;;21.30;;
56173;SDS011;42058;52.308;20.924;2022-11-15T16:48:45;58.28;;;20.17;;
56173;SDS011;42058;52.308;20.924;2022-11-15T16:51:12;51.23;;;19.73;;
56173;SDS011;42058;52.308;20.924;2022-11-15T16:53:38;51.45;;;20.70;;
56173;SDS011;42058;52.308;20.924;2022-11-15T16:56:14;50.05;;;19.48;;
56173;SDS011;42058;52.308;20.924;2022-11-15T16:58:54;44.65;;;16.00;;
56173;SDS011;42058;52.308;20.924;2022-11-15T17:01:24;42.05;;;16.93;;
56173;SDS011;42058;52.308;20.924;2022-11-15T17:03:52;48.13;;;18.10;;
56173;SDS011;42058;52.308;20.924;2022-11-15T17:06:19;44.48;;;16.62;;
56173;SDS011;42058;52.308;20.924;2022-11-15T17:08:46;44.67;;;17.40;;
56173;SDS011;42058;52.308;20.924;2022-11-15T17:11:13;47.75;;;18.92;;
56173;SDS011;42058;52.308;20.924;2022-11-15T17:13:42;49.03;;;18.00;;
56173;SDS011;42058;52.308;20.924;2022-11-15T17:16:09;51.73;;;18.52;;
56173;SDS011;42058;52.308;20.924;2022-11-15T17:18:38;51.63;;;20.02;;
56173;SDS011;42058;52.308;20.924;2022-11-15T17:21:11;48.52;;;17.85;;
56173;SDS011;42058;52.308;20.924;2022-11-15T17:23:39;45.10;;;17.73;;